SR-58 : West of Cottonwood Road Atmospheric Data: 03/22/2019 Summary  Detailed Graphs  Station List

  Temperature     Wind Precipitation Visibility
Timestamp Air Wet
Bulb
Dew-
point
24-hr
Max
24-hr
Min
Relative
Humidity
Atmospheric
Pressure
Avg
Speed
Avg
Dir
Spot
Speed
Spot
Dir
Max
Speed
Max
Dir
  Rate Situation Start End 1 hr 3 hr 6 hr 12 hr 24 hr   Situation
Date Time °F °F °F °F °F % in Hg mph ° mph ° mph ° Y/N in/hr text Date Time Date Time in in in in in mi text
03/22/2019 12:05 AM 50.72 48.02 45.50 64.22 47.30 82.0 x 2.01 NE 1.34 N 3.80 NE No 0.000 No Precipitation 03/01/2011 07:42 PM 03/01/2011 08:53 PM 0.000 0.000 0.000 0.000 0.016 1.24 Clear
03/22/2019 12:20 AM 51.26 48.38 45.68 64.22 47.30 81.0 x 3.80 SW 3.13 SW 7.61 S No 0.000 No Precipitation 03/01/2011 07:42 PM 03/01/2011 08:53 PM 0.000 0.000 0.000 0.000 0.016 1.24 Clear
03/22/2019 12:35 AM 50.36 47.84 45.50 64.22 47.30 83.0 x 1.12 E 1.57 SE 5.59 SW No 0.000 No Precipitation 03/01/2011 07:42 PM 03/01/2011 08:53 PM 0.000 0.000 0.000 0.000 0.016 1.24 Clear
03/22/2019 12:50 AM 51.62 48.56 45.68 64.22 47.30 80.0 x 2.46 E 2.91 E 3.80 E No 0.000 No Precipitation 03/01/2011 07:42 PM 03/01/2011 08:53 PM 0.000 0.000 0.000 0.000 0.016 1.24 Clear
03/22/2019 01:05 AM 51.26 48.56 46.04 64.22 47.30 82.0 x 1.12 S 0.67 S 4.03 E No 0.000 No Precipitation 03/01/2011 07:42 PM 03/01/2011 08:53 PM 0.000 0.000 0.000 0.000 0.016 1.24 Clear
03/22/2019 01:20 AM 50.54 48.02 45.86 64.22 47.30 84.0 x 0.89 W 0.89 SE 1.79 W No 0.000 No Precipitation 03/01/2011 07:42 PM 03/01/2011 08:53 PM 0.000 0.000 0.000 0.000 0.012 1.24 Clear
03/22/2019 01:35 AM 49.64 47.66 45.68 64.22 47.30 86.0 x 0.89 NE 1.12 E 1.79 E No 0.000 No Precipitation 03/01/2011 07:42 PM 03/01/2011 08:53 PM 0.000 0.000 0.000 0.000 0.012 1.24 Clear
03/22/2019 02:05 AM 50.00 47.66 45.50 64.22 47.30 84.0 x 1.79 E 4.25 E 2.68 E No 0.000 No Precipitation 03/01/2011 07:42 PM 03/01/2011 08:53 PM 0.000 0.000 0.000 0.000 0.012 1.24 Clear
03/22/2019 02:20 AM 49.64 47.30 45.14 64.22 47.30 84.0 x 3.80 E 3.58 E 4.70 E No 0.000 No Precipitation 03/01/2011 07:42 PM 03/01/2011 08:53 PM 0.000 0.000 0.000 0.000 0.012 1.24 Clear
03/22/2019 02:35 AM 48.56 46.58 44.60 64.22 47.30 86.0 x 3.58 NE 3.58 E 4.03 E No 0.000 No Precipitation 03/01/2011 07:42 PM 03/01/2011 08:53 PM 0.000 0.000 0.000 0.000 0.012 1.24 Clear
03/22/2019 02:50 AM 48.38 46.22 44.06 64.22 47.30 84.0 x 3.80 NE 2.91 E 4.25 NE No 0.000 No Precipitation 03/01/2011 07:42 PM 03/01/2011 08:53 PM 0.000 0.000 0.000 0.000 0.012 1.24 Clear
03/22/2019 03:05 AM 48.74 46.22 43.88 64.22 47.30 83.0 x 2.68 NE 2.68 NE 5.37 E No 0.000 No Precipitation 03/01/2011 07:42 PM 03/01/2011 08:53 PM 0.000 0.000 0.000 0.000 0.012 1.24 Clear
03/22/2019 03:20 AM 49.10 46.58 44.06 64.22 47.30 82.0 x 0.89 NE 1.57 NE 3.13 NE No 0.000 No Precipitation 03/01/2011 07:42 PM 03/01/2011 08:53 PM 0.000 0.000 0.000 0.000 0.012 1.24 Clear
03/22/2019 03:35 AM 48.74 46.40 43.88 64.22 47.30 83.0 x 1.12 NW 0.89 NW 2.24 NE No 0.000 No Precipitation 03/01/2011 07:42 PM 03/01/2011 08:53 PM 0.000 0.000 0.000 0.000 0.012 1.24 Clear
03/22/2019 03:50 AM 49.10 46.58 44.06 64.22 47.30 83.0 x 1.34 SW 2.01 SW 2.24 E No 0.000 No Precipitation 03/01/2011 07:42 PM 03/01/2011 08:53 PM 0.000 0.000 0.000 0.000 0.012 1.24 Clear
03/22/2019 04:05 AM 48.20 46.04 44.06 64.22 47.30 86.0 x 5.59 S 5.82 S 7.61 S No 0.000 No Precipitation 03/01/2011 07:42 PM 03/01/2011 08:53 PM 0.000 0.000 0.000 0.000 0.012 1.24 Clear
03/22/2019 04:20 AM 46.94 45.32 43.70 64.22 46.76 88.0 x 4.03 S 4.03 SE 5.82 S No 0.000 No Precipitation 03/01/2011 07:42 PM 03/01/2011 08:53 PM 0.000 0.000 0.000 0.000 0.012 1.24 Clear
03/22/2019 04:35 AM 46.76 45.32 43.88 64.22 46.76 89.0 x 3.36 SE 3.80 SE 4.92 SE No 0.000 No Precipitation 03/01/2011 07:42 PM 03/01/2011 08:53 PM 0.000 0.000 0.000 0.000 0.012 1.24 Clear
03/22/2019 04:50 AM 46.76 45.50 44.06 64.22 46.40 90.0 x 2.01 SE 2.01 E 3.58 SE No 0.000 No Precipitation 03/01/2011 07:42 PM 03/01/2011 08:53 PM 0.000 0.000 0.000 0.000 0.012 1.24 Clear
03/22/2019 05:05 AM 46.58 45.14 43.52 64.22 46.40 89.0 x 1.57 SW 1.34 SW 3.13 S No 0.000 No Precipitation 03/01/2011 07:42 PM 03/01/2011 08:53 PM 0.000 0.000 0.000 0.000 0.012 1.24 Clear
03/22/2019 05:20 AM 45.86 44.60 43.34 64.22 45.86 90.0 x 1.12 E 1.34 SE 2.91 E No 0.000 No Precipitation 03/01/2011 07:42 PM 03/01/2011 08:53 PM 0.000 0.000 0.000 0.000 0.012 1.24 Clear
03/22/2019 05:35 AM 46.40 44.96 43.52 64.22 45.86 89.0 x 2.24 E 2.68 NE 4.47 E No 0.000 No Precipitation 03/01/2011 07:42 PM 03/01/2011 08:53 PM 0.000 0.000 0.000 0.000 0.012 1.24 Clear
03/22/2019 05:50 AM 45.68 44.24 42.80 64.22 45.50 90.0 x 2.46 E 2.01 E 3.80 NE No 0.000 No Precipitation 03/01/2011 07:42 PM 03/01/2011 08:53 PM 0.000 0.000 0.000 0.000 0.012 1.24 Clear
03/22/2019 06:05 AM 45.86 44.60 43.16 64.22 45.50 90.0 x 1.79 E 2.01 E 5.82 E No 0.000 No Precipitation 03/01/2011 07:42 PM 03/01/2011 08:53 PM 0.000 0.000 0.000 0.000 0.012 1.24 Clear
03/22/2019 06:20 AM 46.94 45.32 43.70 64.22 45.50 88.0 x 2.46 E 2.46 NE 3.58 E No 0.000 No Precipitation 03/01/2011 07:42 PM 03/01/2011 08:53 PM 0.000 0.000 0.000 0.000 0.012 1.24 Clear
03/22/2019 06:35 AM 47.30 45.50 43.70 64.22 45.50 87.0 x 1.57 E 1.79 SE 4.47 E No 0.000 No Precipitation 03/01/2011 07:42 PM 03/01/2011 08:53 PM 0.000 0.000 0.000 0.000 0.012 1.24 Clear
03/22/2019 06:50 AM 47.66 45.68 43.52 64.22 45.50 85.0 x 1.57 SE 1.57 SE 5.59 E No 0.000 No Precipitation 03/01/2011 07:42 PM 03/01/2011 08:53 PM 0.000 0.000 0.000 0.000 0.012 1.24 Clear
03/22/2019 07:05 AM 47.48 45.68 43.88 64.22 45.50 87.0 x 2.24 SE 2.68 E 3.80 S No 0.000 No Precipitation 03/01/2011 07:42 PM 03/01/2011 08:53 PM 0.000 0.000 0.000 0.000 0.012 1.24 Clear
03/22/2019 07:20 AM 47.48 45.68 43.70 64.22 45.50 86.0 x 1.34 SE 2.01 SE 4.92 S No 0.000 No Precipitation 03/01/2011 07:42 PM 03/01/2011 08:53 PM 0.000 0.000 0.000 0.000 0.012 1.24 Clear
03/22/2019 07:35 AM 46.94 45.14 43.34 64.22 45.50 88.0 x 1.79 S 1.12 SW 4.03 SW No 0.000 No Precipitation 03/01/2011 07:42 PM 03/01/2011 08:53 PM 0.000 0.000 0.000 0.000 0.012 1.24 Clear
03/22/2019 07:50 AM 46.76 45.14 43.52 64.22 45.50 88.0 x 2.46 SE 2.01 S 3.80 SW No 0.000 No Precipitation 03/01/2011 07:42 PM 03/01/2011 08:53 PM 0.000 0.000 0.000 0.000 0.012 1.24 Clear
03/22/2019 08:05 AM 45.86 44.60 43.34 64.22 45.50 90.0 x 2.68 SE 2.91 SE 4.70 SE No 0.000 No Precipitation 03/01/2011 07:42 PM 03/01/2011 08:53 PM 0.000 0.000 0.000 0.000 0.012 1.24 Clear
03/22/2019 08:20 AM 46.58 44.78 42.98 64.22 45.50 87.0 x 2.46 E 2.46 E 4.25 SE No 0.000 No Precipitation 03/01/2011 07:42 PM 03/01/2011 08:53 PM 0.000 0.000 0.000 0.000 0.012 1.24 Clear
03/22/2019 08:35 AM 47.30 45.14 42.98 64.22 45.50 85.0 x 1.57 SE 1.57 SE 3.80 E No 0.000 No Precipitation 03/01/2011 07:42 PM 03/01/2011 08:53 PM 0.000 0.000 0.000 0.000 0.012 1.24 Clear
03/22/2019 08:50 AM 48.20 45.86 43.34 64.22 45.50 83.0 x 2.46 SE 3.36 SE 6.71 E No 0.000 No Precipitation 03/01/2011 07:42 PM 03/01/2011 08:53 PM 0.000 0.000 0.000 0.000 0.012 1.24 Clear
03/22/2019 09:05 AM 48.56 46.22 43.88 64.22 45.50 84.0 x 2.46 S 0.67 N 4.25 SE No 0.000 No Precipitation 03/01/2011 07:42 PM 03/01/2011 08:53 PM 0.000 0.000 0.000 0.000 0.012 1.24 Clear
03/22/2019 09:20 AM 49.64 47.30 44.96 64.22 45.50 84.0 x 2.01 SW 2.68 S 4.47 SW No 0.000 No Precipitation 03/01/2011 07:42 PM 03/01/2011 08:53 PM 0.000 0.000 0.000 0.000 0.012 1.24 Clear
03/22/2019 09:35 AM 50.72 48.02 45.32 64.22 45.50 81.0 x 1.34 SE 1.57 E 3.36 SE No 0.000 No Precipitation 03/01/2011 07:42 PM 03/01/2011 08:53 PM 0.000 0.000 0.000 0.000 0.012 1.24 Clear
03/22/2019 09:50 AM 51.98 49.10 46.40 64.22 45.50 81.0 x 2.24 S 1.57 SE 4.92 S No 0.000 No Precipitation 03/01/2011 07:42 PM 03/01/2011 08:53 PM 0.000 0.000 0.000 0.000 0.012 1.24 Clear
03/22/2019 10:05 AM 53.60 49.64 45.86 64.22 45.50 75.0 x 2.46 W 1.79 W 6.04 SW x 0.000 No Precipitation 03/01/2011 07:42 PM 03/01/2011 08:53 PM 0.000 0.000 0.000 0.000 0.012 1.24 Clear
03/22/2019 10:20 AM 55.04 50.18 45.86 64.22 45.50 71.0 x 1.34 SW 0.67 E 5.59 E x 0.000 No Precipitation 03/01/2011 07:42 PM 03/01/2011 08:53 PM 0.000 0.000 0.000 0.000 0.008 1.24 Clear
03/22/2019 10:35 AM 55.94 50.36 45.50 64.22 45.50 68.0 x 1.79 SW 0.89 S 4.47 E x 0.000 No Precipitation 03/01/2011 07:42 PM 03/01/2011 08:53 PM 0.000 0.000 0.000 0.000 0.004 1.24 Clear
03/22/2019 10:50 AM 56.12 50.18 44.96 64.22 45.50 66.0 x 3.13 SW 2.91 S 4.92 SW x 0.000 No Precipitation 03/01/2011 07:42 PM 03/01/2011 08:53 PM 0.000 0.000 0.000 0.000 0.004 1.24 Clear
03/22/2019 11:05 AM 56.48 50.36 44.78 64.22 45.50 64.0 x 3.36 SW 3.36 SW 6.93 SW x 0.000 No Precipitation 03/01/2011 07:42 PM 03/01/2011 08:53 PM 0.000 0.000 0.000 0.000 0.000 1.24 Clear
03/22/2019 11:20 AM 57.56 51.08 45.32 64.22 45.50 63.0 x 3.58 SW 4.25 W 7.38 W x 0.000 No Precipitation 03/01/2011 07:42 PM 03/01/2011 08:53 PM 0.000 0.000 0.000 0.000 0.000 1.24 Clear
03/22/2019 11:35 AM 58.28 51.62 45.86 64.22 45.50 63.0 x 3.80 W 4.03 W 7.83 SW x 0.000 No Precipitation 03/01/2011 07:42 PM 03/01/2011 08:53 PM 0.000 0.000 0.000 0.000 0.000 1.24 Clear
03/22/2019 11:50 AM 58.64 51.62 45.86 64.22 45.50 62.0 x 2.91 NW 3.80 N 8.28 W x 0.000 No Precipitation 03/01/2011 07:42 PM 03/01/2011 08:53 PM 0.000 0.000 0.000 0.000 0.000 1.24 Clear
03/22/2019 12:05 PM 60.62 52.88 46.40 64.22 45.50 59.0 x 2.68 NE 2.68 E 5.14 W x 0.000 No Precipitation 03/01/2011 07:42 PM 03/01/2011 08:53 PM 0.000 0.000 0.000 0.000 0.000 1.24 Clear
03/22/2019 12:20 PM 61.88 52.88 45.32 64.22 45.50 55.0 x 1.34 NE 1.34 E 6.26 S x 0.000 No Precipitation 03/01/2011 07:42 PM 03/01/2011 08:53 PM 0.000 0.000 0.000 0.000 0.000 1.24 Clear
03/22/2019 12:35 PM 61.16 52.52 44.96 64.22 45.50 55.0 x 4.70 NW 4.03 NW 6.93 NW x 0.000 No Precipitation 03/01/2011 07:42 PM 03/01/2011 08:53 PM 0.000 0.000 0.000 0.000 0.000 1.24 Clear
03/22/2019 12:50 PM 62.06 52.88 44.96 64.22 45.50 53.0 x 3.13 N 2.24 NW 4.70 NW x 0.000 No Precipitation 03/01/2011 07:42 PM 03/01/2011 08:53 PM 0.000 0.000 0.000 0.000 0.000 1.24 Clear
03/22/2019 01:05 PM 63.68 52.88 43.34 64.40 45.50 47.0 x 5.14 SW 4.03 W 7.38 SW x 0.000 No Precipitation 03/01/2011 07:42 PM 03/01/2011 08:53 PM 0.000 0.000 0.000 0.000 0.000 1.24 Clear
03/22/2019 01:20 PM 66.02 54.68 45.68 66.02 45.50 48.0 x 3.58 NW 3.36 W 8.28 SW x 0.000 No Precipitation 03/01/2011 07:42 PM 03/01/2011 08:53 PM 0.000 0.000 0.000 0.000 0.000 1.24 Clear
03/22/2019 01:35 PM 64.04 52.88 43.16 66.02 45.50 46.0 x 4.92 W 4.03 NW 8.95 NW x 0.000 No Precipitation 03/01/2011 07:42 PM 03/01/2011 08:53 PM 0.000 0.000 0.000 0.000 0.000 1.24 Clear
03/22/2019 01:50 PM 64.40 52.52 41.90 66.02 45.50 43.0 x 5.14 N 5.14 N 9.62 NW x 0.000 No Precipitation 03/01/2011 07:42 PM 03/01/2011 08:53 PM 0.000 0.000 0.000 0.000 0.000 1.24 Clear
03/22/2019 02:05 PM 65.30 52.52 42.80 66.02 45.50 42.0 x 6.26 W 4.70 SW 7.83 NW x 0.000 No Precipitation 03/01/2011 07:42 PM 03/01/2011 08:53 PM 0.000 0.000 0.000 0.000 0.000 1.24 Clear
03/22/2019 02:20 PM 65.66 53.24 42.26 66.02 45.50 42.0 x 1.34 N 2.68 N 10.51 N x 0.000 No Precipitation 03/01/2011 07:42 PM 03/01/2011 08:53 PM 0.000 0.000 0.000 0.000 0.000 1.24 Clear
03/22/2019 02:35 PM 64.58 52.52 41.90 66.38 45.50 43.0 x 7.16 N 6.71 N 10.96 N x 0.000 No Precipitation 03/01/2011 07:42 PM 03/01/2011 08:53 PM 0.000 0.000 0.000 0.000 0.000 1.24 Clear
03/22/2019 02:50 PM 66.92 53.06 40.46 67.10 45.50 38.0 x 3.80 SW 4.47 SW 5.82 N x 0.000 No Precipitation 03/01/2011 07:42 PM 03/01/2011 08:53 PM 0.000 0.000 0.000 0.000 0.000 1.24 Clear
03/22/2019 03:05 PM 64.22 51.98 40.64 67.10 45.50 42.0 x 2.46 N 2.24 NE 9.62 NW x 0.000 No Precipitation 03/01/2011 07:42 PM 03/01/2011 08:53 PM 0.000 0.000 0.000 0.000 0.000 1.24 Clear
03/22/2019 03:20 PM 66.56 53.24 41.36 67.46 45.50 39.0 x 6.04 N 8.05 NE 12.97 N x 0.000 No Precipitation 03/01/2011 07:42 PM 03/01/2011 08:53 PM 0.000 0.000 0.000 0.000 0.000 1.24 Clear
03/22/2019 03:35 PM 66.02 52.88 40.82 67.46 45.50 39.0 x 0.89 W 0.89 SW 10.07 N x 0.000 No Precipitation 03/01/2011 07:42 PM 03/01/2011 08:53 PM 0.000 0.000 0.000 0.000 0.000 1.24 Clear
03/22/2019 03:50 PM 66.92 53.78 42.26 68.54 45.50 40.0 x 3.36 NE 5.82 NW 7.83 NE x 0.000 No Precipitation 03/01/2011 07:42 PM 03/01/2011 08:53 PM 0.000 0.000 0.000 0.000 0.000 1.24 Clear
03/22/2019 04:05 PM 65.66 52.52 40.46 68.54 45.50 39.0 x 4.47 W 4.47 W 10.29 NW x 0.000 No Precipitation 03/01/2011 07:42 PM 03/01/2011 08:53 PM 0.000 0.000 0.000 0.000 0.000 1.24 Clear
03/22/2019 04:20 PM 67.46 53.60 41.36 68.72 45.50 38.0 x 3.36 NW 3.13 N 15.21 NW x 0.000 No Precipitation 03/01/2011 07:42 PM 03/01/2011 08:53 PM 0.000 0.000 0.000 0.000 0.000 1.24 Clear
03/22/2019 04:35 PM 67.64 53.42 41.00 68.72 45.50 37.0 x 4.03 NE 0.89 N 10.51 NE x 0.000 No Precipitation 03/01/2011 07:42 PM 03/01/2011 08:53 PM 0.000 0.000 0.000 0.000 0.000 1.24 Clear
03/22/2019 04:50 PM 66.56 52.52 39.38 68.72 45.50 36.0 x 7.38 N 7.16 NW 9.62 N x 0.000 No Precipitation 03/01/2011 07:42 PM 03/01/2011 08:53 PM 0.000 0.000 0.000 0.000 0.000 1.24 Clear
03/22/2019 05:05 PM 66.20 52.88 40.82 68.72 45.50 39.0 x 4.25 W 3.13 NW 10.29 N x 0.000 No Precipitation 03/01/2011 07:42 PM 03/01/2011 08:53 PM 0.000 0.000 0.000 0.000 0.000 1.24 Clear
03/22/2019 05:20 PM 66.38 52.34 39.38 68.72 45.50 37.0 x 4.70 N 7.16 N 8.05 NW x 0.000 No Precipitation 03/01/2011 07:42 PM 03/01/2011 08:53 PM 0.000 0.000 0.000 0.000 0.000 1.24 Clear
03/22/2019 05:35 PM 67.10 52.34 38.48 68.72 45.50 35.0 x 2.24 NE 2.01 E 8.95 NE x 0.000 No Precipitation 03/01/2011 07:42 PM 03/01/2011 08:53 PM 0.000 0.000 0.000 0.000 0.000 1.24 Clear
03/22/2019 05:50 PM 66.92 52.16 37.94 68.72 45.50 34.0 x 7.83 N 7.38 N 10.96 N x 0.000 No Precipitation 03/01/2011 07:42 PM 03/01/2011 08:53 PM 0.000 0.000 0.000 0.000 0.000 1.24 Clear
03/22/2019 06:05 PM 65.84 51.80 38.48 68.72 45.50 36.0 x 7.38 NW 6.26 NW 12.97 NW x 0.000 No Precipitation 03/01/2011 07:42 PM 03/01/2011 08:53 PM 0.000 0.000 0.000 0.000 0.000 1.24 Clear
03/22/2019 06:20 PM 66.74 52.70 39.74 68.72 45.50 37.0 x 5.37 E 5.14 E 8.28 E x 0.000 No Precipitation 03/01/2011 07:42 PM 03/01/2011 08:53 PM 0.000 0.000 0.000 0.000 0.000 1.24 Clear
03/22/2019 06:35 PM 66.20 52.52 39.74 68.72 45.50 38.0 x 5.59 NW 4.92 N 11.86 N x 0.000 No Precipitation 03/01/2011 07:42 PM 03/01/2011 08:53 PM 0.000 0.000 0.000 0.000 0.000 1.24 Clear
03/22/2019 06:50 PM 66.20 52.34 39.56 68.72 45.50 37.0 x 4.92 NW 5.14 N 8.72 NW x 0.000 No Precipitation 03/01/2011 07:42 PM 03/01/2011 08:53 PM 0.000 0.000 0.000 0.000 0.000 1.24 Clear
03/22/2019 07:05 PM 65.66 52.16 39.74 68.72 45.50 38.0 x 4.25 N 4.47 NW 9.40 N x 0.000 No Precipitation 03/01/2011 07:42 PM 03/01/2011 08:53 PM 0.000 0.000 0.000 0.000 0.000 1.24 Clear
03/22/2019 07:20 PM 65.12 52.16 40.28 68.72 45.50 40.0 x 3.36 N 4.25 NW 7.61 N x 0.000 No Precipitation 03/01/2011 07:42 PM 03/01/2011 08:53 PM 0.000 0.000 0.000 0.000 0.000 1.24 Clear
03/22/2019 07:35 PM 65.12 52.16 40.28 68.72 45.50 40.0 x 4.25 NW 4.92 NW 7.61 N x 0.000 No Precipitation 03/01/2011 07:42 PM 03/01/2011 08:53 PM 0.000 0.000 0.000 0.000 0.000 1.24 Clear
03/22/2019 07:50 PM 64.58 51.98 40.46 68.72 45.50 41.0 x 4.47 N 4.92 NW 6.71 NW x 0.000 No Precipitation 03/01/2011 07:42 PM 03/01/2011 08:53 PM 0.000 0.000 0.000 0.000 0.000 1.24 Clear
03/22/2019 08:05 PM 64.22 51.80 40.46 68.72 45.50 41.0 x 3.58 W 3.80 W 6.26 NW x 0.000 No Precipitation 03/01/2011 07:42 PM 03/01/2011 08:53 PM 0.000 0.000 0.000 0.000 0.000 1.24 Clear
03/22/2019 08:20 PM 63.68 51.80 41.00 68.72 45.50 43.0 x 6.04 W 8.28 NW 9.17 W x 0.000 No Precipitation 03/01/2011 07:42 PM 03/01/2011 08:53 PM 0.000 0.000 0.000 0.000 0.000 1.24 Clear
03/22/2019 08:35 PM 63.32 51.80 41.18 68.72 45.50 44.0 x 4.47 NW 6.26 NW 7.16 W x 0.000 No Precipitation 03/01/2011 07:42 PM 03/01/2011 08:53 PM 0.000 0.000 0.000 0.000 0.000 1.24 Clear
03/22/2019 08:50 PM 63.50 51.62 40.64 68.72 45.50 43.0 x 4.03 NW 3.36 NW 6.26 NW x 0.000 No Precipitation 03/01/2011 07:42 PM 03/01/2011 08:53 PM 0.000 0.000 0.000 0.000 0.000 1.24 Clear
03/22/2019 09:05 PM 63.32 51.62 40.64 68.72 45.50 43.0 x 3.36 NW 2.68 N 5.82 NW x 0.000 No Precipitation 03/01/2011 07:42 PM 03/01/2011 08:53 PM 0.000 0.000 0.000 0.000 0.000 1.24 Clear
03/22/2019 09:35 PM 61.70 51.08 41.18 68.72 45.50 47.0 x 1.34 N 1.57 N 3.36 N x 0.000 No Precipitation 03/01/2011 07:42 PM 03/01/2011 08:53 PM 0.000 0.000 0.000 0.000 0.000 1.24 Clear
03/22/2019 09:50 PM 61.70 51.26 41.54 68.72 45.50 47.0 x 2.24 E 3.58 E 4.47 E x 0.000 No Precipitation 03/01/2011 07:42 PM 03/01/2011 08:53 PM 0.000 0.000 0.000 0.000 0.000 1.24 Clear
03/22/2019 10:05 PM 61.52 51.62 42.44 68.72 45.50 49.0 x 3.36 E 4.25 E 5.37 E x 0.000 No Precipitation 03/01/2011 07:42 PM 03/01/2011 08:53 PM 0.000 0.000 0.000 0.000 0.000 1.24 Clear
03/22/2019 10:20 PM 59.18 51.26 44.24 68.72 45.50 58.0 x 3.13 E 2.91 S 4.92 SE x 0.000 No Precipitation 03/01/2011 07:42 PM 03/01/2011 08:53 PM 0.000 0.000 0.000 0.000 0.000 1.24 Clear
03/22/2019 10:35 PM 59.36 51.44 44.42 68.72 45.50 57.0 x 2.91 E 2.91 E 4.25 E x 0.000 No Precipitation 03/01/2011 07:42 PM 03/01/2011 08:53 PM 0.000 0.000 0.000 0.000 0.000 1.24 Clear
03/22/2019 10:50 PM 59.00 51.26 44.60 68.72 45.50 58.0 x 2.24 E 2.01 SE 4.70 E x 0.000 No Precipitation 03/01/2011 07:42 PM 03/01/2011 08:53 PM 0.000 0.000 0.000 0.000 0.000 1.24 Clear
03/22/2019 11:05 PM 56.12 50.36 45.32 68.72 45.50 67.0 x 2.91 E 2.68 E 6.49 SE x 0.000 No Precipitation 03/01/2011 07:42 PM 03/01/2011 08:53 PM 0.000 0.000 0.000 0.000 0.000 1.24 Clear
03/22/2019 11:20 PM 57.56 50.90 45.32 68.72 45.50 63.0 x 2.91 E 2.46 E 7.16 E x 0.000 No Precipitation 03/01/2011 07:42 PM 03/01/2011 08:53 PM 0.000 0.000 0.000 0.000 0.000 1.24 Clear
03/22/2019 11:35 PM 54.14 49.64 45.68 68.72 45.50 73.0 x 5.14 SE 6.49 SE 7.38 SE No 0.000 No Precipitation 03/01/2011 07:42 PM 03/01/2011 08:53 PM 0.000 0.000 0.000 0.000 0.000 1.24 Clear
03/22/2019 11:50 PM 55.22 50.36 45.86 68.72 45.50 70.0 x 4.03 SE 3.13 SE 7.38 SE No 0.000 No Precipitation 03/01/2011 07:42 PM 03/01/2011 08:53 PM 0.000 0.000 0.000 0.000 0.000 1.24 Clear